Time;durP1;ratioP1;P1;durP2;ratioP2;P2;SDS_P1;SDS_P2;PMS_P1;PMS_P2;Temp;Humidity;BMP_temperature;BMP_pressure;BME280_temperature;BME280_humidity;BME280_pressure;Samples;Min_cycle;Max_cycle;Signal;HPM_P1;HPM_P2
2023/12/12 00:00:37;;;;;;;2.23;1.17;;;6.90;99.90;;;;;;5038270;28;20696;-59
2023/12/12 00:03:03;;;;;;;7.63;2.20;;;6.70;99.90;;;;;;5051262;28;20217;-59
2023/12/12 00:05:28;;;;;;;2.40;1.00;;;6.70;99.90;;;;;;5053300;28;20572;-59
2023/12/12 00:07:55;;;;;;;5.13;1.87;;;6.80;99.90;;;;;;5053218;28;20185;-59
2023/12/12 00:10:21;;;;;;;5.90;2.43;;;6.70;99.90;;;;;;5052822;28;20205;-59
2023/12/12 00:12:46;;;;;;;4.33;1.43;;;6.70;99.90;;;;;;5053318;28;20490;-59
2023/12/12 00:15:11;;;;;;;9.30;2.30;;;6.80;99.90;;;;;;5052381;28;20216;-59
2023/12/12 00:17:38;;;;;;;6.90;1.83;;;6.80;99.90;;;;;;5048749;28;20190;-59
2023/12/12 00:20:08;;;;;;;4.73;2.20;;;6.80;99.90;;;;;;5047965;28;20628;-59
2023/12/12 00:22:34;;;;;;;13.40;2.53;;;6.80;99.90;;;;;;5046986;28;20427;-57
2023/12/12 00:24:59;;;;;;;2.77;1.53;;;6.80;99.90;;;;;;5052928;28;20412;-57
2023/12/12 00:27:25;;;;;;;6.30;1.70;;;6.90;99.90;;;;;;5052852;28;20212;-57
2023/12/12 00:29:50;;;;;;;3.87;2.13;;;7.10;99.90;;;;;;5041600;28;20212;-57
2023/12/12 00:32:16;;;;;;;5.03;1.67;;;7.00;99.90;;;;;;5052663;28;20673;-59
2023/12/12 00:34:41;;;;;;;6.30;1.53;;;6.90;99.90;;;;;;5052670;28;20182;-59
2023/12/12 00:37:07;;;;;;;6.50;2.70;;;7.10;99.90;;;;;;5025547;28;20263;-59
2023/12/12 00:39:37;;;;;;;6.10;2.20;;;6.90;99.90;;;;;;5040009;28;20225;-59
2023/12/12 00:42:03;;;;;;;5.73;2.20;;;7.10;99.90;;;;;;5045623;28;20537;-58
2023/12/12 00:44:29;;;;;;;2.90;1.40;;;6.90;99.90;;;;;;5044570;28;20418;-59
2023/12/12 00:46:54;;;;;;;2.53;1.77;;;7.00;99.90;;;;;;5051894;28;20518;-59
2023/12/12 00:49:20;;;;;;;12.53;2.37;;;7.00;99.90;;;;;;5041658;28;20190;-59
2023/12/12 00:51:45;;;;;;;14.23;1.40;;;7.00;99.90;;;;;;5044369;28;20659;-59
2023/12/12 00:54:11;;;;;;;4.10;1.33;;;7.00;99.90;;;;;;5052556;28;20177;-59
2023/12/12 00:56:36;;;;;;;2.00;0.80;;;7.00;99.90;;;;;;5052147;28;20198;-59
2023/12/12 00:59:02;;;;;;;5.23;1.57;;;7.10;99.90;;;;;;5047593;28;20179;-59
2023/12/12 01:01:28;;;;;;;15.50;1.90;;;7.10;99.90;;;;;;5045884;28;20229;-59
2023/12/12 01:03:53;;;;;;;3.50;1.40;;;7.10;99.90;;;;;;5052048;28;20177;-59
2023/12/12 01:06:24;;;;;;;4.40;1.50;;;7.10;99.90;;;;;;5051739;28;20665;-57
2023/12/12 01:08:50;;;;;;;3.67;1.20;;;7.40;99.90;;;;;;5051950;28;20177;-57
2023/12/12 01:11:16;;;;;;;13.70;1.43;;;7.40;99.90;;;;;;5051587;28;20873;-57
2023/12/12 01:13:42;;;;;;;2.37;0.90;;;7.40;99.90;;;;;;5051728;28;20803;-57
2023/12/12 01:16:07;;;;;;;3.13;0.73;;;7.50;99.90;;;;;;5051116;28;20468;-59
2023/12/12 01:18:34;;;;;;;5.43;1.30;;;7.10;99.90;;;;;;5036754;28;20743;-59
2023/12/12 01:21:00;;;;;;;3.93;0.80;;;7.10;99.90;;;;;;5031840;28;20182;-59
2023/12/12 01:23:26;;;;;;;10.50;1.53;;;7.30;99.90;;;;;;5046641;28;20422;-59
2023/12/12 01:25:51;;;;;;;5.90;1.47;;;7.00;99.90;;;;;;5046244;28;21104;-59
2023/12/12 01:28:17;;;;;;;3.37;0.83;;;6.90;99.90;;;;;;5051757;28;20193;-59
2023/12/12 01:30:42;;;;;;;7.13;1.60;;;7.20;99.90;;;;;;5047548;28;20186;-59
2023/12/12 01:33:08;;;;;;;2.70;0.93;;;6.90;99.90;;;;;;5051520;28;20181;-59
2023/12/12 01:35:33;;;;;;;2.10;0.83;;;6.90;99.90;;;;;;5048822;28;20205;-59
2023/12/12 01:37:58;;;;;;;6.17;1.87;;;6.80;99.90;;;;;;5025981;28;20181;-59
2023/12/12 01:40:24;;;;;;;5.23;1.87;;;7.00;99.90;;;;;;5032839;28;20539;-58
2023/12/12 01:42:49;;;;;;;13.53;1.90;;;6.60;99.90;;;;;;5049683;28;20173;-59
2023/12/12 01:45:15;;;;;;;3.90;1.20;;;6.50;99.90;;;;;;5045513;28;20594;-59
2023/12/12 01:47:40;;;;;;;5.70;1.67;;;6.50;99.90;;;;;;5047561;28;20193;-57
2023/12/12 01:50:07;;;;;;;4.37;1.43;;;6.40;99.90;;;;;;5044238;28;20724;-57
2023/12/12 01:52:34;;;;;;;2.43;0.97;;;6.40;99.90;;;;;;5032240;28;20276;-57
2023/12/12 01:54:59;;;;;;;2.33;0.90;;;6.30;99.90;;;;;;5051191;28;20938;-57
2023/12/12 01:57:25;;;;;;;2.90;0.90;;;6.30;99.90;;;;;;5051137;28;20431;-59
2023/12/12 01:59:51;;;;;;;4.13;1.10;;;6.20;99.90;;;;;;5040234;28;20580;-59
2023/12/12 02:02:18;;;;;;;9.00;1.77;;;6.20;99.90;;;;;;5050923;28;20424;-59
2023/12/12 02:04:45;;;;;;;2.40;1.00;;;6.40;99.90;;;;;;5051203;28;20182;-59
2023/12/12 02:07:12;;;;;;;1.60;0.80;;;6.20;99.90;;;;;;5050884;28;20745;-59
2023/12/12 02:09:39;;;;;;;1.50;0.80;;;6.20;99.90;;;;;;5050808;28;21245;-59
2023/12/12 02:12:04;;;;;;;6.73;1.90;;;6.20;99.90;;;;;;5042176;28;20400;-57
2023/12/12 02:14:31;;;;;;;3.20;1.00;;;6.20;99.90;;;;;;5050135;28;20919;-57
2023/12/12 02:16:56;;;;;;;6.43;1.20;;;6.40;99.90;;;;;;5050784;28;20225;-59
2023/12/12 02:19:22;;;;;;;2.37;1.00;;;6.20;99.90;;;;;;5047815;28;20463;-59
2023/12/12 02:21:47;;;;;;;3.17;1.60;;;6.10;99.90;;;;;;5035526;28;20333;-57
2023/12/12 02:24:13;;;;;;;1.80;0.90;;;6.00;99.90;;;;;;5039517;28;20235;-57
2023/12/12 02:26:39;;;;;;;3.43;1.30;;;6.00;99.90;;;;;;5050658;28;20181;-57
2023/12/12 02:29:04;;;;;;;2.50;1.00;;;6.00;99.90;;;;;;5026546;28;20191;-57
2023/12/12 02:31:30;;;;;;;2.17;1.30;;;6.00;99.90;;;;;;5050929;28;20182;-59
2023/12/12 02:33:55;;;;;;;2.73;1.50;;;6.00;99.90;;;;;;5041107;28;20260;-59
2023/12/12 02:36:21;;;;;;;2.87;1.37;;;6.00;99.90;;;;;;5035250;28;20211;-59
2023/12/12 02:38:46;;;;;;;12.60;1.67;;;5.90;99.90;;;;;;5028539;28;20217;-59
2023/12/12 02:41:12;;;;;;;5.07;0.80;;;5.90;99.90;;;;;;5026787;28;20181;-59
2023/12/12 02:43:37;;;;;;;1.37;0.90;;;6.00;99.90;;;;;;5043633;28;20178;-59
2023/12/12 02:46:03;;;;;;;1.93;1.20;;;6.20;99.90;;;;;;5050269;28;20897;-59
2023/12/12 02:48:28;;;;;;;1.80;0.70;;;6.20;99.90;;;;;;5041176;28;20642;-58
2023/12/12 02:50:54;;;;;;;2.80;1.00;;;6.30;99.90;;;;;;5050735;28;20630;-59
2023/12/12 02:53:19;;;;;;;3.67;0.93;;;6.30;99.90;;;;;;5038366;28;20194;-59
2023/12/12 02:55:45;;;;;;;4.60;1.53;;;6.40;99.90;;;;;;5050434;28;20197;-57
2023/12/12 02:58:11;;;;;;;6.30;0.83;;;6.40;99.90;;;;;;5037368;28;20171;-57
2023/12/12 03:00:36;;;;;;;3.73;0.80;;;6.40;99.90;;;;;;5039971;28;20221;-57
2023/12/12 03:03:01;;;;;;;8.90;1.03;;;6.40;99.90;;;;;;5050274;28;20190;-57
2023/12/12 03:05:27;;;;;;;8.07;1.07;;;6.40;99.90;;;;;;5050415;28;20178;-58
2023/12/12 03:07:52;;;;;;;2.03;1.13;;;6.40;99.90;;;;;;5050332;28;20247;-59
2023/12/12 03:10:18;;;;;;;2.70;0.87;;;6.40;99.90;;;;;;5050994;28;20208;-59
2023/12/12 03:12:43;;;;;;;10.00;1.27;;;6.40;99.90;;;;;;5054129;28;20662;-59
2023/12/12 03:15:09;;;;;;;3.87;1.20;;;6.40;99.90;;;;;;5053624;28;20233;-59
2023/12/12 03:17:35;;;;;;;1.50;0.87;;;6.40;99.90;;;;;;5044699;28;20611;-59
2023/12/12 03:20:00;;;;;;;6.50;0.80;;;6.40;99.90;;;;;;5054113;28;20638;-59
2023/12/12 03:22:26;;;;;;;11.63;1.67;;;6.40;99.90;;;;;;5054131;28;20170;-57
2023/12/12 03:24:52;;;;;;;4.33;1.07;;;6.40;99.90;;;;;;5036640;28;20295;-56
2023/12/12 03:27:18;;;;;;;1.93;0.70;;;6.40;99.90;;;;;;5047008;28;20205;-59
2023/12/12 03:29:43;;;;;;;2.90;0.93;;;6.40;99.90;;;;;;5015325;28;20646;-59
2023/12/12 03:32:10;;;;;;;2.10;0.70;;;6.40;99.90;;;;;;5053536;28;20424;-57
2023/12/12 03:34:35;;;;;;;2.40;1.43;;;6.30;99.90;;;;;;5053864;28;20236;-57
2023/12/12 03:37:01;;;;;;;9.87;1.63;;;6.30;99.90;;;;;;5027078;28;20466;-59
2023/12/12 03:39:26;;;;;;;2.57;1.20;;;6.30;99.90;;;;;;5041830;28;20193;-59
2023/12/12 03:41:52;;;;;;;4.80;1.03;;;6.20;99.90;;;;;;5029366;28;20536;-57
2023/12/12 03:44:18;;;;;;;3.73;1.17;;;6.20;99.90;;;;;;5046036;28;20169;-57
2023/12/12 03:46:43;;;;;;;1.27;0.70;;;6.20;99.90;;;;;;5033368;28;20211;-59
2023/12/12 03:49:09;;;;;;;6.93;0.97;;;6.40;99.90;;;;;;5043465;28;20618;-58
2023/12/12 03:51:34;;;;;;;7.63;0.87;;;6.20;99.90;;;;;;5053699;28;20185;-59
2023/12/12 03:54:00;;;;;;;2.23;0.87;;;6.20;99.90;;;;;;5053308;28;20193;-59
2023/12/12 03:56:25;;;;;;;3.43;0.80;;;6.20;99.90;;;;;;5053167;28;20201;-57
2023/12/12 03:58:51;;;;;;;1.67;0.80;;;6.20;99.90;;;;;;5050348;28;20221;-57
2023/12/12 04:01:16;;;;;;;2.50;0.93;;;6.20;99.90;;;;;;5046008;28;20225;-59
2023/12/12 04:03:42;;;;;;;9.40;1.07;;;6.20;99.90;;;;;;5053260;28;20189;-59
2023/12/12 04:06:07;;;;;;;1.63;0.83;;;6.20;99.90;;;;;;5053386;28;20189;-57
2023/12/12 04:08:33;;;;;;;2.43;1.00;;;6.20;99.90;;;;;;5053315;28;20177;-57
2023/12/12 04:10:58;;;;;;;2.63;0.90;;;6.20;99.90;;;;;;5053368;28;20182;-59
2023/12/12 04:13:24;;;;;;;6.83;1.20;;;6.10;99.90;;;;;;5052922;28;20223;-59
2023/12/12 04:15:49;;;;;;;2.07;0.70;;;6.10;99.90;;;;;;5048979;28;20554;-59
2023/12/12 04:18:15;;;;;;;2.43;0.80;;;6.00;99.90;;;;;;5043276;28;20174;-59
2023/12/12 04:20:40;;;;;;;1.77;0.80;;;5.90;99.90;;;;;;5045228;28;20186;-57
2023/12/12 04:23:06;;;;;;;4.70;1.17;;;5.80;99.90;;;;;;5051692;28;20186;-57
2023/12/12 04:25:32;;;;;;;1.30;0.60;;;5.70;99.90;;;;;;5052805;28;20200;-60
2023/12/12 04:27:58;;;;;;;2.40;0.97;;;5.80;99.90;;;;;;5034795;28;20599;-59
2023/12/12 04:30:24;;;;;;;1.90;1.20;;;5.60;99.90;;;;;;5049241;28;20501;-58
2023/12/12 04:32:49;;;;;;;3.50;1.30;;;5.60;99.90;;;;;;5052747;28;20192;-57
2023/12/12 04:35:16;;;;;;;1.30;0.60;;;5.50;99.90;;;;;;5052398;28;20202;-57
2023/12/12 04:37:41;;;;;;;2.70;1.20;;;5.60;99.90;;;;;;5025735;28;20173;-59
2023/12/12 04:40:07;;;;;;;8.23;1.00;;;5.60;99.90;;;;;;5035037;28;20418;-59
2023/12/12 04:42:33;;;;;;;2.10;1.00;;;5.60;99.90;;;;;;5051117;28;20186;-57
2023/12/12 04:44:58;;;;;;;2.10;0.90;;;5.60;99.90;;;;;;5042044;28;20524;-57
2023/12/12 04:47:23;;;;;;;2.10;0.97;;;5.60;99.90;;;;;;5032611;28;20174;-59
2023/12/12 04:49:49;;;;;;;5.97;0.97;;;5.70;99.90;;;;;;5040281;28;20177;-59
2023/12/12 04:52:15;;;;;;;2.70;1.13;;;5.70;99.90;;;;;;5027112;28;20893;-57
2023/12/12 04:54:41;;;;;;;2.50;0.80;;;5.70;99.90;;;;;;5025274;28;20611;-57
2023/12/12 04:57:06;;;;;;;6.20;1.37;;;5.70;99.90;;;;;;5028933;28;20547;-57
2023/12/12 04:59:32;;;;;;;3.10;1.00;;;5.60;99.90;;;;;;5019256;28;20183;-57
2023/12/12 05:01:57;;;;;;;2.60;1.03;;;5.70;99.90;;;;;;5022658;28;20298;-57
2023/12/12 05:04:23;;;;;;;3.00;0.90;;;6.00;99.90;;;;;;5023393;28;20162;-57
2023/12/12 05:06:48;;;;;;;2.20;1.10;;;6.00;99.90;;;;;;5045707;28;20186;-59
2023/12/12 05:09:13;;;;;;;2.47;1.50;;;5.50;99.90;;;;;;5051486;28;20181;-59
2023/12/12 05:11:39;;;;;;;5.63;0.83;;;5.50;99.90;;;;;;5040742;28;20217;-57
2023/12/12 05:14:06;;;;;;;2.43;1.40;;;5.50;99.90;;;;;;5050790;28;20189;-57
2023/12/12 05:16:32;;;;;;;3.33;1.10;;;5.40;99.90;;;;;;5032692;28;20209;-59
2023/12/12 05:18:57;;;;;;;5.80;1.33;;;5.40;99.90;;;;;;5047324;28;20454;-59
2023/12/12 05:21:23;;;;;;;1.20;0.60;;;5.40;99.90;;;;;;5051382;28;20269;-59
2023/12/12 05:23:49;;;;;;;3.77;1.20;;;5.40;99.90;;;;;;5051380;28;20677;-59
2023/12/12 05:26:15;;;;;;;4.10;1.30;;;5.50;99.90;;;;;;5051278;28;20174;-59
2023/12/12 05:28:41;;;;;;;2.60;0.80;;;5.40;99.90;;;;;;5037962;28;20430;-59
2023/12/12 05:31:07;;;;;;;3.30;1.10;;;5.40;99.90;;;;;;5047602;28;20888;-59
2023/12/12 05:33:33;;;;;;;3.77;1.20;;;5.80;99.90;;;;;;5044847;28;20499;-59
2023/12/12 05:35:58;;;;;;;2.80;1.20;;;5.40;99.90;;;;;;5038671;28;20274;-57
2023/12/12 05:38:24;;;;;;;2.03;1.03;;;5.30;99.90;;;;;;5031211;28;20814;-57
2023/12/12 05:40:50;;;;;;;2.03;0.87;;;5.30;99.90;;;;;;5030048;28;20227;-59
2023/12/12 05:43:15;;;;;;;4.17;1.80;;;5.40;99.90;;;;;;5028556;28;20186;-59
2023/12/12 05:45:41;;;;;;;3.63;1.53;;;5.40;99.90;;;;;;5044595;28;20181;-59
2023/12/12 05:48:07;;;;;;;2.17;1.07;;;5.40;99.90;;;;;;5042324;28;20182;-59
2023/12/12 05:50:32;;;;;;;5.30;2.00;;;5.50;99.90;;;;;;5028155;28;20202;-57
2023/12/12 05:52:58;;;;;;;4.27;1.07;;;5.50;99.90;;;;;;5036702;28;20426;-57
2023/12/12 05:55:23;;;;;;;3.67;1.67;;;5.50;99.90;;;;;;5034541;28;20643;-57
2023/12/12 05:57:49;;;;;;;4.00;1.70;;;5.60;99.90;;;;;;5039978;28;20205;-57
2023/12/12 06:00:15;;;;;;;6.00;1.80;;;5.60;99.90;;;;;;5032077;28;20229;-57
2023/12/12 06:02:41;;;;;;;2.43;1.50;;;5.60;99.90;;;;;;5050829;28;20189;-57
2023/12/12 06:05:07;;;;;;;4.63;2.00;;;5.60;99.90;;;;;;5050556;28;20428;-57
2023/12/12 06:07:33;;;;;;;3.93;1.47;;;5.50;99.90;;;;;;5050589;28;20420;-59
2023/12/12 06:09:59;;;;;;;18.30;3.53;;;5.60;99.90;;;;;;5050426;28;20430;-58
2023/12/12 06:12:24;;;;;;;9.23;3.53;;;5.60;99.90;;;;;;5045776;28;20424;-59
2023/12/12 06:14:50;;;;;;;21.33;5.87;;;5.90;99.90;;;;;;5045440;28;20266;-59
2023/12/12 06:17:15;;;;;;;23.57;7.77;;;5.60;99.90;;;;;;5050355;28;20174;-58
2023/12/12 06:19:41;;;;;;;8.13;3.50;;;5.60;99.90;;;;;;5048078;28;20874;-59
2023/12/12 06:22:07;;;;;;;21.07;6.50;;;5.60;99.90;;;;;;5042578;28;20190;-57
2023/12/12 06:24:33;;;;;;;18.90;6.33;;;5.60;99.90;;;;;;5044207;28;20182;-57
2023/12/12 06:26:58;;;;;;;11.57;4.40;;;5.60;99.90;;;;;;5050217;28;20826;-56
2023/12/12 06:29:24;;;;;;;18.03;4.90;;;5.60;99.90;;;;;;5037684;28;20199;-57
2023/12/12 06:31:50;;;;;;;15.83;6.03;;;5.60;99.90;;;;;;5041233;28;20204;-59
2023/12/12 06:34:15;;;;;;;17.10;6.33;;;5.60;99.90;;;;;;5032004;28;20901;-59
2023/12/12 06:36:41;;;;;;;27.40;4.53;;;5.60;99.90;;;;;;5010524;28;20249;-59
2023/12/12 06:39:09;;;;;;;9.00;2.67;;;5.60;99.90;;;;;;5034656;28;20537;-59
2023/12/12 06:41:36;;;;;;;11.90;3.70;;;5.60;99.90;;;;;;5036487;28;20169;-60
2023/12/12 06:44:01;;;;;;;6.03;2.43;;;5.70;99.90;;;;;;5029828;28;21007;-59
2023/12/12 06:46:27;;;;;;;4.80;2.10;;;5.70;99.90;;;;;;5050949;28;20495;-60
2023/12/12 06:48:52;;;;;;;5.30;2.00;;;5.70;99.90;;;;;;5042300;28;20704;-59
2023/12/12 06:51:18;;;;;;;4.13;2.03;;;5.70;99.90;;;;;;5052573;28;20213;-57
2023/12/12 06:53:44;;;;;;;1.60;1.07;;;5.80;99.90;;;;;;5051487;28;20203;-57
2023/12/12 06:56:10;;;;;;;3.50;1.10;;;5.90;99.90;;;;;;5052782;28;20645;-59
2023/12/12 06:58:36;;;;;;;2.47;0.80;;;5.90;99.90;;;;;;5051847;28;20426;-59
2023/12/12 07:01:01;;;;;;;1.83;0.90;;;6.00;99.90;;;;;;5042033;28;20223;-59
2023/12/12 07:03:27;;;;;;;1.90;0.97;;;6.10;99.90;;;;;;5046757;28;20190;-59
2023/12/12 07:05:52;;;;;;;1.87;0.90;;;6.10;99.90;;;;;;5032319;28;20192;-59
2023/12/12 07:08:19;;;;;;;3.63;0.83;;;6.20;99.90;;;;;;5052089;28;20199;-59
2023/12/12 07:10:48;;;;;;;3.67;1.00;;;6.20;99.90;;;;;;5052140;28;21018;-59
2023/12/12 07:13:13;;;;;;;2.67;1.07;;;6.20;99.90;;;;;;5044969;28;21086;-59
2023/12/12 07:15:39;;;;;;;4.50;1.60;;;6.20;99.90;;;;;;5051236;28;20508;-60
2023/12/12 07:18:10;;;;;;;3.23;1.30;;;6.20;99.90;;;;;;5048083;28;20639;-59
2023/12/12 07:20:36;;;;;;;2.33;1.20;;;6.20;99.90;;;;;;5052189;28;20427;-59
2023/12/12 07:23:03;;;;;;;2.30;0.90;;;6.40;99.90;;;;;;5051855;28;20443;-59
2023/12/12 07:25:29;;;;;;;2.97;1.70;;;6.50;99.90;;;;;;5051911;28;20900;-57
2023/12/12 07:27:54;;;;;;;8.10;2.20;;;6.50;99.90;;;;;;5052088;28;20435;-58
2023/12/12 07:30:20;;;;;;;3.30;1.80;;;6.50;99.90;;;;;;5042456;28;20224;-57
2023/12/12 07:32:45;;;;;;;2.70;1.40;;;6.50;99.90;;;;;;5045777;28;20666;-58
2023/12/12 07:35:11;;;;;;;4.43;1.40;;;6.50;99.90;;;;;;5052052;28;20208;-57
2023/12/12 07:37:36;;;;;;;2.10;1.27;;;6.90;99.90;;;;;;5024559;28;20182;-59
2023/12/12 07:40:04;;;;;;;1.40;0.80;;;6.50;99.90;;;;;;5034636;28;20190;-60
2023/12/12 07:42:30;;;;;;;5.90;1.70;;;6.50;99.90;;;;;;5049306;28;20182;-60
2023/12/12 07:44:55;;;;;;;4.43;1.60;;;6.50;99.90;;;;;;5041572;28;21057;-60
2023/12/12 07:47:22;;;;;;;1.80;1.10;;;6.60;99.90;;;;;;5050614;28;21078;-57
2023/12/12 07:49:47;;;;;;;3.00;1.13;;;6.60;99.90;;;;;;5022554;28;20603;-57
2023/12/12 07:52:13;;;;;;;2.20;1.13;;;6.60;99.90;;;;;;5043172;28;20500;-58
2023/12/12 07:54:38;;;;;;;3.53;0.83;;;6.60;99.90;;;;;;5051348;28;20171;-57
2023/12/12 07:57:05;;;;;;;1.70;1.00;;;6.60;99.90;;;;;;5040790;28;20274;-57
2023/12/12 07:59:30;;;;;;;1.67;0.70;;;6.50;99.90;;;;;;5025529;28;20208;-57
2023/12/12 08:01:56;;;;;;;2.20;1.00;;;6.60;99.90;;;;;;5049142;28;20511;-60
2023/12/12 08:04:21;;;;;;;2.43;1.17;;;6.60;99.90;;;;;;5051154;28;20197;-60
2023/12/12 08:06:47;;;;;;;2.13;1.13;;;6.80;99.90;;;;;;5051101;28;20242;-60
2023/12/12 08:09:12;;;;;;;2.00;1.20;;;6.60;99.90;;;;;;5050920;28;20555;-60
2023/12/12 08:11:38;;;;;;;1.80;0.90;;;6.60;99.90;;;;;;5051007;28;20189;-57
2023/12/12 08:14:05;;;;;;;2.83;1.03;;;6.60;99.90;;;;;;5050390;28;20553;-57
2023/12/12 08:16:31;;;;;;;2.07;1.30;;;7.00;99.90;;;;;;5050930;28;20467;-60
2023/12/12 08:18:56;;;;;;;1.90;1.47;;;6.80;99.90;;;;;;5028790;28;20209;-60
2023/12/12 08:21:22;;;;;;;3.30;1.47;;;6.90;99.90;;;;;;5043493;28;20436;-60
2023/12/12 08:23:48;;;;;;;2.27;1.13;;;6.60;99.90;;;;;;5038453;28;20274;-60
2023/12/12 08:26:14;;;;;;;4.00;0.90;;;6.60;99.90;;;;;;5030191;28;20420;-60
2023/12/12 08:28:40;;;;;;;2.27;1.00;;;6.80;99.90;;;;;;5044743;28;20417;-60
2023/12/12 08:31:06;;;;;;;11.67;2.40;;;6.60;99.90;;;;;;5028255;28;20410;-62
2023/12/12 08:33:35;;;;;;;5.70;2.73;;;6.60;99.90;;;;;;5036461;28;20189;-61
2023/12/12 08:36:00;;;;;;;5.63;2.20;;;6.50;99.90;;;;;;5029011;28;20199;-62
2023/12/12 08:38:26;;;;;;;4.70;2.07;;;6.70;99.90;;;;;;5022888;28;20804;-61
2023/12/12 08:40:51;;;;;;;7.87;2.80;;;6.70;99.90;;;;;;5035327;28;20193;-61
2023/12/12 08:43:17;;;;;;;4.97;1.87;;;6.70;99.90;;;;;;5045227;28;20216;-61
2023/12/12 08:45:46;;;;;;;3.30;2.00;;;6.80;99.90;;;;;;5047804;28;20201;-61
2023/12/12 08:48:12;;;;;;;3.20;1.73;;;7.30;99.90;;;;;;5042431;28;20178;-61
2023/12/12 08:50:37;;;;;;;2.37;1.60;;;7.00;99.90;;;;;;5030460;28;20432;-58
2023/12/12 08:53:03;;;;;;;3.10;1.80;;;6.90;99.90;;;;;;5048553;28;20470;-56
2023/12/12 08:55:29;;;;;;;3.00;1.10;;;7.10;99.90;;;;;;5050417;28;20201;-60
2023/12/12 08:57:55;;;;;;;1.43;0.93;;;7.20;99.90;;;;;;5032180;28;20190;-61
2023/12/12 09:00:20;;;;;;;2.73;1.30;;;7.30;99.90;;;;;;5023442;28;20635;-61
2023/12/12 09:02:46;;;;;;;2.50;1.17;;;7.10;99.90;;;;;;5030625;28;20217;-61
2023/12/12 09:05:11;;;;;;;2.80;1.13;;;7.10;99.90;;;;;;5039230;28;20181;-61
2023/12/12 09:07:37;;;;;;;4.00;2.20;;;7.10;99.90;;;;;;5043108;28;20571;-61
2023/12/12 09:10:03;;;;;;;5.30;2.43;;;7.10;99.90;;;;;;5042057;28;20554;-61
2023/12/12 09:12:29;;;;;;;7.80;2.90;;;7.10;99.90;;;;;;5049950;28;20243;-58
2023/12/12 09:14:55;;;;;;;5.27;2.60;;;7.30;99.90;;;;;;5049010;28;20798;-57
2023/12/12 09:17:20;;;;;;;6.10;2.70;;;7.10;99.90;;;;;;5049199;28;20181;-61
2023/12/12 09:19:45;;;;;;;6.40;2.90;;;7.20;99.90;;;;;;5021259;28;20218;-60
2023/12/12 09:22:11;;;;;;;6.20;2.70;;;7.40;99.90;;;;;;5031742;28;20198;-60
2023/12/12 09:24:36;;;;;;;6.40;2.73;;;7.10;99.90;;;;;;5031113;28;20193;-60
2023/12/12 09:27:02;;;;;;;3.70;2.30;;;7.00;99.90;;;;;;5035722;28;20194;-60
2023/12/12 09:29:27;;;;;;;10.90;5.00;;;7.00;99.90;;;;;;5037812;28;20186;-60
2023/12/12 09:31:53;;;;;;;12.67;5.80;;;7.10;99.90;;;;;;5033936;28;20197;-60
2023/12/12 09:34:18;;;;;;;12.53;5.47;;;6.90;99.90;;;;;;5042697;28;20568;-60
2023/12/12 09:36:44;;;;;;;11.27;4.70;;;6.90;99.90;;;;;;5023282;28;20199;-60
2023/12/12 09:39:10;;;;;;;8.07;4.33;;;6.90;99.90;;;;;;5035238;28;20223;-60
2023/12/12 09:41:36;;;;;;;9.00;3.60;;;6.80;99.90;;;;;;5040269;28;20178;-60
2023/12/12 09:44:03;;;;;;;15.00;3.87;;;6.70;99.90;;;;;;5041209;28;20462;-60
2023/12/12 09:46:30;;;;;;;6.43;3.23;;;6.70;99.90;;;;;;5039265;28;20479;-60
2023/12/12 09:48:56;;;;;;;3.93;2.47;;;6.70;99.90;;;;;;5036908;28;20424;-60
2023/12/12 09:51:24;;;;;;;7.20;2.70;;;6.70;99.90;;;;;;5049411;28;20417;-57
2023/12/12 09:53:50;;;;;;;4.27;2.03;;;6.90;99.90;;;;;;5049044;28;20893;-58
2023/12/12 09:56:17;;;;;;;2.63;1.43;;;6.70;99.90;;;;;;5049143;28;20487;-57
2023/12/12 09:58:47;;;;;;;1.50;0.70;;;6.70;99.90;;;;;;5047342;28;20458;-57
2023/12/12 10:01:14;;;;;;;6.97;1.43;;;6.80;99.90;;;;;;5036574;28;20492;-57
2023/12/12 10:03:41;;;;;;;3.03;0.80;;;7.20;99.90;;;;;;5048965;28;20416;-57
2023/12/12 10:06:09;;;;;;;2.10;0.97;;;7.10;99.90;;;;;;5050305;28;20908;-59
2023/12/12 10:08:38;;;;;;;1.67;0.80;;;7.30;99.90;;;;;;5042345;28;20428;-59
2023/12/12 10:11:08;;;;;;;1.60;0.90;;;7.30;99.90;;;;;;5030605;28;20413;-57
2023/12/12 10:13:56;;;;;;;2.57;1.10;;;7.60;99.90;;;;;;5042193;28;20412;-57
2023/12/12 10:16:22;;;;;;;1.77;1.00;;;7.20;99.90;;;;;;5037758;28;20467;-59
2023/12/12 10:18:49;;;;;;;3.93;1.30;;;7.20;99.90;;;;;;5046772;28;20413;-59
2023/12/12 10:21:16;;;;;;;1.90;1.03;;;7.20;99.90;;;;;;5050182;28;20178;-59
2023/12/12 10:23:52;;;;;;;2.47;1.27;;;7.30;99.90;;;;;;5050352;28;20460;-59
2023/12/12 10:26:25;;;;;;;1.97;1.33;;;7.30;99.90;;;;;;5050427;28;20432;-58
2023/12/12 10:28:52;;;;;;;1.47;0.93;;;7.60;99.90;;;;;;5047292;28;20419;-58
2023/12/12 10:31:20;;;;;;;4.03;1.30;;;7.40;99.90;;;;;;5048897;28;20412;-58
2023/12/12 10:33:47;;;;;;;3.00;1.20;;;7.40;99.90;;;;;;5050256;28;20411;-58
2023/12/12 10:36:12;;;;;;;3.40;0.70;;;7.30;99.90;;;;;;5036847;28;20565;-59
2023/12/12 10:38:39;;;;;;;2.17;0.97;;;7.60;99.90;;;;;;5030234;28;20552;-59
2023/12/12 10:41:11;;;;;;;2.13;1.27;;;7.70;99.90;;;;;;5016125;28;20180;-59
2023/12/12 10:43:40;;;;;;;1.93;1.00;;;7.30;99.90;;;;;;5028755;28;20922;-59
2023/12/12 10:46:08;;;;;;;5.47;1.20;;;7.30;99.90;;;;;;5033568;28;20429;-59
2023/12/12 10:48:36;;;;;;;1.60;1.00;;;7.60;99.90;;;;;;5022421;28;20414;-59
2023/12/12 10:51:02;;;;;;;2.67;1.27;;;7.40;99.90;;;;;;5040704;28;20439;-58
2023/12/12 10:53:29;;;;;;;6.83;1.80;;;7.50;99.90;;;;;;5049409;28;20470;-58
2023/12/12 10:55:56;;;;;;;1.70;0.97;;;7.80;99.90;;;;;;5043337;28;20514;-58
2023/12/12 10:58:23;;;;;;;3.83;1.07;;;7.80;99.90;;;;;;5049097;28;20481;-58
2023/12/12 11:00:49;;;;;;;1.47;0.83;;;7.70;99.90;;;;;;5038861;28;20466;-59
2023/12/12 11:03:16;;;;;;;1.60;0.70;;;7.60;99.90;;;;;;5049491;28;20423;-59
2023/12/12 11:05:42;;;;;;;1.40;0.60;;;7.60;99.90;;;;;;5050010;28;20182;-58
2023/12/12 11:08:09;;;;;;;3.10;1.60;;;7.90;99.90;;;;;;5048945;28;20417;-58
2023/12/12 11:10:34;;;;;;;5.50;2.03;;;7.90;99.90;;;;;;5049879;28;20416;-58
2023/12/12 11:13:02;;;;;;;2.73;1.37;;;8.10;99.90;;;;;;5030169;28;20436;-58
2023/12/12 11:15:29;;;;;;;2.17;1.17;;;8.40;99.90;;;;;;5013419;28;20214;-58
2023/12/12 11:17:56;;;;;;;2.20;1.67;;;8.00;99.90;;;;;;5032746;28;20432;-59
2023/12/12 11:20:22;;;;;;;2.33;0.90;;;8.10;99.90;;;;;;5049876;28;20428;-59
2023/12/12 11:22:50;;;;;;;1.80;0.80;;;8.10;99.90;;;;;;5049751;28;20892;-59
2023/12/12 11:25:20;;;;;;;2.90;0.90;;;8.20;99.90;;;;;;5025632;28;20535;-59
2023/12/12 11:27:52;;;;;;;2.53;0.93;;;8.20;99.90;;;;;;5031131;28;20420;-59
2023/12/12 11:30:19;;;;;;;1.90;1.27;;;8.30;99.90;;;;;;5043462;28;20423;-59
2023/12/12 11:32:46;;;;;;;3.17;0.97;;;8.30;99.90;;;;;;5033364;28;20450;-58
2023/12/12 11:35:25;;;;;;;2.10;1.10;;;8.40;99.90;;;;;;5044548;28;20424;-58
2023/12/12 11:37:52;;;;;;;1.83;0.77;;;8.40;99.90;;;;;;5026739;28;20940;-60
2023/12/12 11:40:17;;;;;;;6.00;0.80;;;8.40;99.90;;;;;;5033670;28;20436;-59
2023/12/12 11:42:45;;;;;;;1.50;0.70;;;8.50;99.90;;;;;;5052439;28;21071;-60
2023/12/12 11:45:10;;;;;;;1.57;0.80;;;8.40;99.90;;;;;;5036347;28;20171;-60
2023/12/12 11:47:36;;;;;;;1.20;0.70;;;8.40;99.90;;;;;;5022387;28;20498;-59
2023/12/12 11:50:11;;;;;;;3.63;1.23;;;8.50;99.90;;;;;;5040511;28;20190;-59
2023/12/12 11:52:36;;;;;;;1.30;0.60;;;8.40;99.90;;;;;;5046515;28;20780;-59
2023/12/12 11:55:02;;;;;;;1.17;0.60;;;8.50;99.90;;;;;;5051283;28;20961;-59
2023/12/12 11:57:29;;;;;;;1.53;0.60;;;8.40;99.90;;;;;;5051259;28;20884;-59
2023/12/12 11:59:54;;;;;;;2.47;0.87;;;8.40;99.90;;;;;;5040984;28;20249;-59
2023/12/12 12:02:20;;;;;;;1.40;0.80;;;8.40;99.90;;;;;;5051341;28;20885;-59
2023/12/12 12:04:45;;;;;;;4.10;1.00;;;8.70;99.90;;;;;;5039384;28;20170;-59
2023/12/12 12:07:11;;;;;;;1.23;0.60;;;8.90;99.90;;;;;;5051599;28;20508;-58
2023/12/12 12:09:39;;;;;;;1.17;0.60;;;8.80;99.90;;;;;;5051243;28;20174;-58
2023/12/12 12:12:09;;;;;;;1.90;0.80;;;8.80;99.90;;;;;;5051460;28;20218;-58
2023/12/12 12:14:35;;;;;;;4.73;0.80;;;9.10;99.90;;;;;;5029523;28;20960;-58
2023/12/12 12:17:01;;;;;;;1.70;0.90;;;8.70;99.90;;;;;;5021434;28;20567;-59
2023/12/12 12:19:28;;;;;;;2.17;0.87;;;8.50;99.90;;;;;;5030905;28;20409;-59
2023/12/12 12:21:55;;;;;;;7.03;1.40;;;8.80;99.90;;;;;;5023842;28;20405;-59
2023/12/12 12:24:20;;;;;;;2.37;1.03;;;8.80;99.90;;;;;;5025682;28;20401;-59
2023/12/12 12:26:46;;;;;;;1.40;0.70;;;8.80;99.90;;;;;;5024644;28;20445;-58
2023/12/12 12:29:11;;;;;;;1.20;0.60;;;9.00;99.90;;;;;;5029142;28;20181;-58
2023/12/12 12:31:40;;;;;;;1.20;0.63;;;8.80;99.90;;;;;;5018626;28;20745;-59
2023/12/12 12:34:24;;;;;;;1.70;0.63;;;8.90;99.90;;;;;;5024547;28;20183;-59
2023/12/12 12:36:51;;;;;;;3.17;0.97;;;8.60;99.90;;;;;;5020366;28;20452;-58
2023/12/12 12:39:17;;;;;;;1.83;0.67;;;8.80;99.90;;;;;;5038913;28;20417;-57
2023/12/12 12:41:46;;;;;;;1.40;0.77;;;8.60;99.90;;;;;;5043968;28;20423;-59
2023/12/12 12:44:12;;;;;;;4.80;0.70;;;8.80;99.90;;;;;;5043126;28;20193;-59
2023/12/12 12:46:37;;;;;;;1.20;0.60;;;8.60;99.90;;;;;;5039099;28;20434;-59
2023/12/12 12:49:03;;;;;;;1.40;0.77;;;8.70;99.90;;;;;;5041663;28;20182;-59